Time;durP1;ratioP1;P1;durP2;ratioP2;P2;SDS_P1;SDS_P2;PMS_P1;PMS_P2;Temp;Humidity;BMP_temperature;BMP_pressure;BME280_temperature;BME280_humidity;BME280_pressure;Samples;Min_cycle;Max_cycle;Signal;HPM_P1;HPM_P2
2023/06/02 00:00:49;;;;;;;5.13;1.00;;;;;;;;;;5092088;28;20055;-73
2023/06/02 00:03:15;;;;;;;7.35;1.40;;;;;;;;;;5093538;28;20099;-73
2023/06/02 00:05:41;;;;;;;7.00;1.38;;;;;;;;;;5093449;28;20123;-73
2023/06/02 00:08:09;;;;;;;5.63;1.33;;;;;;;;;;5093664;28;20466;-73
2023/06/02 00:10:36;;;;;;;6.90;1.13;;;;;;;;;;5093161;28;20020;-73
2023/06/02 00:13:02;;;;;;;8.95;1.80;;;;;;;;;;5093786;28;20048;-73
2023/06/02 00:15:31;;;;;;;7.30;1.63;;;;;;;;;;5093372;28;20499;-73
2023/06/02 00:17:57;;;;;;;4.60;0.90;;;;;;;;;;5093588;28;20028;-73
2023/06/02 00:20:27;;;;;;;7.63;1.70;;;;;;;;;;5092932;28;20028;-73
2023/06/02 00:22:54;;;;;;;5.57;1.92;;;;;;;;;;5093007;28;20497;-73
2023/06/02 00:25:20;;;;;;;7.30;1.17;;;;;;;;;;5093348;28;20043;-73
2023/06/02 00:27:51;;;;;;;6.18;1.05;;;;;;;;;;5093190;28;20058;-73
2023/06/02 00:30:17;;;;;;;11.90;2.38;;;;;;;;;;5092896;28;20032;-73
2023/06/02 00:32:43;;;;;;;6.60;1.10;;;;;;;;;;5092796;28;20107;-73
2023/06/02 00:35:09;;;;;;;10.27;2.58;;;;;;;;;;5092714;28;20555;-73
2023/06/02 00:37:35;;;;;;;6.88;1.20;;;;;;;;;;5093060;28;20028;-73
2023/06/02 00:40:02;;;;;;;8.38;1.95;;;;;;;;;;5092866;28;20398;-73
2023/06/02 00:42:28;;;;;;;9.32;1.80;;;;;;;;;;5092987;28;20119;-73
2023/06/02 00:44:54;;;;;;;6.03;1.30;;;;;;;;;;5092784;28;20110;-73
2023/06/02 00:47:20;;;;;;;9.45;1.55;;;;;;;;;;5092789;28;20024;-73
2023/06/02 00:49:46;;;;;;;11.77;1.85;;;;;;;;;;5092451;28;20115;-73
2023/06/02 00:52:13;;;;;;;10.35;2.17;;;;;;;;;;5093193;28;20045;-73
2023/06/02 00:54:39;;;;;;;8.95;1.98;;;;;;;;;;5092416;28;20046;-73
2023/06/02 00:57:06;;;;;;;6.68;1.40;;;;;;;;;;5092393;28;20049;-73
2023/06/02 00:59:32;;;;;;;11.18;2.17;;;;;;;;;;5092083;28;20093;-73
2023/06/02 01:01:58;;;;;;;12.93;2.88;;;;;;;;;;5077216;28;20053;-73
2023/06/02 01:04:24;;;;;;;10.40;1.77;;;;;;;;;;5071813;28;20020;-73
2023/06/02 01:06:51;;;;;;;7.95;1.70;;;;;;;;;;5072143;28;20095;-73
2023/06/02 01:09:19;;;;;;;6.82;1.70;;;;;;;;;;5071399;28;20455;-73
2023/06/02 01:11:52;;;;;;;6.47;1.50;;;;;;;;;;5071871;28;20016;-73
2023/06/02 01:14:18;;;;;;;4.97;1.33;;;;;;;;;;5081753;28;20032;-73
2023/06/02 01:16:44;;;;;;;9.98;2.17;;;;;;;;;;5092432;28;20032;-73
2023/06/02 01:19:13;;;;;;;8.80;1.75;;;;;;;;;;5091960;28;20058;-73
2023/06/02 01:21:44;;;;;;;7.13;2.05;;;;;;;;;;5092028;28;20020;-73
2023/06/02 01:24:10;;;;;;;12.15;2.08;;;;;;;;;;5092383;28;20386;-73
2023/06/02 01:26:36;;;;;;;9.38;2.03;;;;;;;;;;5092181;28;20023;-73
2023/06/02 01:29:03;;;;;;;9.50;2.15;;;;;;;;;;5091984;28;20020;-73
2023/06/02 01:31:35;;;;;;;10.27;1.60;;;;;;;;;;5091884;28;20034;-73
2023/06/02 01:34:09;;;;;;;12.98;2.35;;;;;;;;;;5091974;28;20027;-73
2023/06/02 01:36:36;;;;;;;9.35;1.90;;;;;;;;;;5091888;28;20028;-73
2023/06/02 01:39:02;;;;;;;5.68;1.40;;;;;;;;;;5092334;28;20047;-73
2023/06/02 01:41:30;;;;;;;5.35;1.30;;;;;;;;;;5105205;28;20054;-73
2023/06/02 01:43:57;;;;;;;6.32;1.40;;;;;;;;;;5091268;28;20025;-73
2023/06/02 01:46:26;;;;;;;7.13;1.05;;;;;;;;;;5071498;28;20114;-73
2023/06/02 01:48:55;;;;;;;4.20;1.42;;;;;;;;;;5099916;28;20085;-73
2023/06/02 01:51:24;;;;;;;3.47;1.17;;;;;;;;;;5104051;28;20414;-73
2023/06/02 01:53:50;;;;;;;10.67;1.80;;;;;;;;;;5091620;28;20028;-73
2023/06/02 01:56:16;;;;;;;5.70;2.08;;;;;;;;;;5091626;28;20085;-73
2023/06/02 01:58:42;;;;;;;1.77;0.98;;;;;;;;;;5091900;28;20352;-73
2023/06/02 02:01:08;;;;;;;5.95;1.30;;;;;;;;;;5090601;28;20056;-73
2023/06/02 02:03:37;;;;;;;6.15;1.45;;;;;;;;;;5091386;28;20025;-73
2023/06/02 02:06:03;;;;;;;10.05;1.52;;;;;;;;;;5091635;28;20051;-73
2023/06/02 02:08:29;;;;;;;10.15;1.55;;;;;;;;;;5091900;28;20024;-73
2023/06/02 02:10:55;;;;;;;7.45;1.67;;;;;;;;;;5091345;28;20028;-73
2023/06/02 02:13:21;;;;;;;10.23;1.90;;;;;;;;;;5075973;28;20059;-73
2023/06/02 02:15:47;;;;;;;3.65;1.08;;;;;;;;;;5071195;28;20083;-73
2023/06/02 02:18:15;;;;;;;6.45;2.25;;;;;;;;;;5073332;28;20063;-73
2023/06/02 02:20:41;;;;;;;4.05;1.13;;;;;;;;;;5091715;28;20020;-73
2023/06/02 02:23:07;;;;;;;5.18;1.50;;;;;;;;;;5095270;28;20368;-73
2023/06/02 02:25:33;;;;;;;5.72;1.38;;;;;;;;;;5095599;28;20074;-73
2023/06/02 02:28:00;;;;;;;8.60;1.63;;;;;;;;;;5095187;28;20107;-73
2023/06/02 02:30:26;;;;;;;11.45;2.20;;;;;;;;;;5095408;28;20091;-73
2023/06/02 02:32:55;;;;;;;9.73;1.48;;;;;;;;;;5082772;28;20154;-73
2023/06/02 02:35:22;;;;;;;9.52;1.73;;;;;;;;;;5093180;28;20038;-73
2023/06/02 02:37:52;;;;;;;14.07;2.05;;;;;;;;;;5084291;28;20032;-73
2023/06/02 02:40:17;;;;;;;7.13;2.07;;;;;;;;;;5087013;28;20039;-73
2023/06/02 02:42:44;;;;;;;8.50;1.67;;;;;;;;;;5076302;28;20037;-73
2023/06/02 02:45:10;;;;;;;5.30;1.65;;;;;;;;;;5094977;28;20410;-73
2023/06/02 02:47:36;;;;;;;9.07;2.10;;;;;;;;;;5094949;28;20122;-73
2023/06/02 02:50:02;;;;;;;9.63;2.00;;;;;;;;;;5076922;28;20067;-73
2023/06/02 02:52:28;;;;;;;7.90;1.83;;;;;;;;;;5085995;28;20101;-73
2023/06/02 02:54:54;;;;;;;12.52;1.80;;;;;;;;;;5094747;28;20479;-73
2023/06/02 02:57:20;;;;;;;8.18;2.38;;;;;;;;;;5094919;28;20025;-73
2023/06/02 02:59:47;;;;;;;9.82;1.73;;;;;;;;;;5094331;28;20462;-73
2023/06/02 03:02:13;;;;;;;7.78;2.42;;;;;;;;;;5093767;28;20054;-73
2023/06/02 03:04:41;;;;;;;7.47;2.10;;;;;;;;;;5094569;28;20016;-73
2023/06/02 03:07:07;;;;;;;11.07;2.22;;;;;;;;;;5076400;28;20108;-73
2023/06/02 03:09:33;;;;;;;9.68;1.83;;;;;;;;;;5085693;28;20398;-73
2023/06/02 03:11:59;;;;;;;8.70;1.67;;;;;;;;;;5094566;28;20026;-73
2023/06/02 03:14:28;;;;;;;8.68;1.80;;;;;;;;;;5094561;28;20024;-73
2023/06/02 03:16:54;;;;;;;13.35;1.98;;;;;;;;;;5087406;28;20062;-73
2023/06/02 03:19:23;;;;;;;10.18;3.13;;;;;;;;;;5081881;28;20524;-73
2023/06/02 03:21:51;;;;;;;11.07;3.47;;;;;;;;;;5094256;28;20047;-73
2023/06/02 03:24:18;;;;;;;13.02;2.60;;;;;;;;;;5094330;28;20078;-73
2023/06/02 03:26:44;;;;;;;12.60;2.20;;;;;;;;;;5075838;28;20034;-73
2023/06/02 03:29:10;;;;;;;12.40;1.95;;;;;;;;;;5094092;28;20028;-73
2023/06/02 03:31:37;;;;;;;8.65;1.52;;;;;;;;;;5094033;28;20497;-73
2023/06/02 03:34:03;;;;;;;14.82;2.78;;;;;;;;;;5093894;28;20017;-73
2023/06/02 03:36:34;;;;;;;7.47;1.63;;;;;;;;;;5093964;28;20047;-73
2023/06/02 03:39:00;;;;;;;7.70;1.70;;;;;;;;;;5094030;28;20046;-73
2023/06/02 03:41:26;;;;;;;7.90;1.65;;;;;;;;;;5093967;28;20020;-73
2023/06/02 03:43:52;;;;;;;8.63;2.03;;;;;;;;;;5093928;28;20403;-73
2023/06/02 03:46:18;;;;;;;7.97;1.98;;;;;;;;;;5087883;28;20065;-73
2023/06/02 03:48:44;;;;;;;12.18;1.67;;;;;;;;;;5073668;28;20029;-73
2023/06/02 03:51:10;;;;;;;10.45;2.55;;;;;;;;;;5073624;28;20498;-73
2023/06/02 03:53:36;;;;;;;9.68;1.65;;;;;;;;;;5073349;28;20122;-73
2023/06/02 03:56:02;;;;;;;11.45;2.75;;;;;;;;;;5073283;28;20020;-73
2023/06/02 03:58:28;;;;;;;8.57;1.90;;;;;;;;;;5073339;28;20549;-73
2023/06/02 04:00:55;;;;;;;9.07;1.60;;;;;;;;;;5072223;28;20052;-73
2023/06/02 04:03:22;;;;;;;10.52;2.25;;;;;;;;;;5073202;28;20017;-73
2023/06/02 04:05:48;;;;;;;6.30;1.38;;;;;;;;;;5091697;28;20070;-73
2023/06/02 04:08:14;;;;;;;16.80;2.00;;;;;;;;;;5072879;28;20033;-73
2023/06/02 04:10:40;;;;;;;6.40;2.05;;;;;;;;;;5073372;28;20064;-73
2023/06/02 04:13:06;;;;;;;10.73;1.90;;;;;;;;;;5082542;28;20103;-73
2023/06/02 04:15:33;;;;;;;11.32;1.92;;;;;;;;;;5073388;28;20031;-73
2023/06/02 04:17:59;;;;;;;9.35;2.22;;;;;;;;;;5073499;28;20342;-73
2023/06/02 04:20:25;;;;;;;5.47;1.75;;;;;;;;;;5072794;28;20059;-73
2023/06/02 04:22:51;;;;;;;18.63;1.73;;;;;;;;;;5073010;28;20462;-73
2023/06/02 04:25:17;;;;;;;13.05;1.77;;;;;;;;;;5072788;28;20071;-73
2023/06/02 04:27:43;;;;;;;10.07;1.83;;;;;;;;;;5078501;28;20099;-73
2023/06/02 04:30:09;;;;;;;14.68;1.88;;;;;;;;;;5093114;28;20032;-73
2023/06/02 04:32:35;;;;;;;18.05;2.33;;;;;;;;;;5093031;28;20506;-73
2023/06/02 04:35:03;;;;;;;10.85;1.63;;;;;;;;;;5092930;28;20024;-73
2023/06/02 04:37:29;;;;;;;6.32;1.30;;;;;;;;;;5092934;28;20020;-73
2023/06/02 04:39:57;;;;;;;12.18;2.50;;;;;;;;;;5092775;28;20020;-73
2023/06/02 04:42:22;;;;;;;8.82;2.92;;;;;;;;;;5092857;28;20032;-73
2023/06/02 04:44:51;;;;;;;10.32;2.00;;;;;;;;;;5073644;28;20020;-73
2023/06/02 04:47:17;;;;;;;12.07;2.03;;;;;;;;;;5092757;28;20021;-73
2023/06/02 04:49:43;;;;;;;4.07;1.48;;;;;;;;;;5081060;28;20417;-73
2023/06/02 04:52:09;;;;;;;11.43;2.08;;;;;;;;;;5072161;28;20040;-74
2023/06/02 04:54:36;;;;;;;10.43;2.10;;;;;;;;;;5072050;28;20060;-73
2023/06/02 04:57:05;;;;;;;10.82;2.00;;;;;;;;;;5072193;28;20036;-74
2023/06/02 04:59:35;;;;;;;8.90;1.60;;;;;;;;;;5090727;28;20030;-73
2023/06/02 05:02:01;;;;;;;10.68;1.85;;;;;;;;;;5091935;28;20501;-73
2023/06/02 05:04:27;;;;;;;11.27;1.88;;;;;;;;;;5092449;28;20035;-73
2023/06/02 05:06:53;;;;;;;7.80;1.85;;;;;;;;;;5092465;28;20028;-73
2023/06/02 05:09:20;;;;;;;12.23;2.30;;;;;;;;;;5092401;28;20020;-74
2023/06/02 05:11:45;;;;;;;7.95;1.80;;;;;;;;;;5092032;28;20020;-73
2023/06/02 05:14:18;;;;;;;14.85;1.90;;;;;;;;;;5092232;28;20450;-73
2023/06/02 05:16:44;;;;;;;9.38;2.00;;;;;;;;;;5092597;28;20028;-73
2023/06/02 05:19:10;;;;;;;9.00;1.70;;;;;;;;;;5092034;28;20525;-73
2023/06/02 05:21:36;;;;;;;10.88;2.45;;;;;;;;;;5092171;28;20036;-73
2023/06/02 05:24:02;;;;;;;9.70;2.33;;;;;;;;;;5092021;28;20069;-74
2023/06/02 05:26:28;;;;;;;18.85;2.25;;;;;;;;;;5085832;28;20103;-74
2023/06/02 05:28:54;;;;;;;10.00;2.22;;;;;;;;;;5053573;28;20504;-74
2023/06/02 05:31:20;;;;;;;16.25;2.50;;;;;;;;;;5071760;28;20031;-74
2023/06/02 05:33:46;;;;;;;6.80;1.42;;;;;;;;;;5071487;28;20024;-74
2023/06/02 05:36:12;;;;;;;8.05;1.92;;;;;;;;;;5074627;28;20032;-73
2023/06/02 05:38:40;;;;;;;7.03;2.15;;;;;;;;;;5091913;28;20101;-74
2023/06/02 05:41:06;;;;;;;8.48;2.20;;;;;;;;;;5088370;28;20035;-74
2023/06/02 05:43:32;;;;;;;10.15;1.95;;;;;;;;;;5105167;28;20085;-74
2023/06/02 05:45:58;;;;;;;9.38;1.30;;;;;;;;;;5091658;28;20024;-74
2023/06/02 05:48:24;;;;;;;8.45;2.70;;;;;;;;;;5087134;28;20356;-74
2023/06/02 05:50:50;;;;;;;10.00;2.05;;;;;;;;;;5078020;28;20071;-74
2023/06/02 05:53:16;;;;;;;10.10;1.77;;;;;;;;;;5102171;28;20467;-74
2023/06/02 05:55:42;;;;;;;8.38;2.10;;;;;;;;;;5091303;28;20033;-74
2023/06/02 05:58:09;;;;;;;9.02;1.90;;;;;;;;;;5101524;28;20016;-74
2023/06/02 06:00:35;;;;;;;6.85;2.13;;;;;;;;;;5092721;28;20055;-74
2023/06/02 06:03:01;;;;;;;8.48;2.35;;;;;;;;;;5081384;28;20032;-74
2023/06/02 06:05:27;;;;;;;10.98;1.80;;;;;;;;;;5088194;28;20146;-73
2023/06/02 06:07:53;;;;;;;18.65;2.70;;;;;;;;;;5073293;28;20115;-73
2023/06/02 06:10:19;;;;;;;10.88;2.17;;;;;;;;;;5079427;28;20029;-73
2023/06/02 06:12:45;;;;;;;13.07;3.03;;;;;;;;;;5070996;28;20499;-73
2023/06/02 06:15:11;;;;;;;12.60;2.40;;;;;;;;;;5071193;28;20073;-73
2023/06/02 06:17:50;;;;;;;13.77;2.17;;;;;;;;;;5091231;28;20020;-73
2023/06/02 06:20:16;;;;;;;10.50;2.08;;;;;;;;;;5103434;28;20476;-73
2023/06/02 06:22:42;;;;;;;7.38;1.90;;;;;;;;;;5070832;28;20040;-73
2023/06/02 06:25:09;;;;;;;12.02;2.80;;;;;;;;;;5071277;28;20117;-73
2023/06/02 06:27:35;;;;;;;7.40;2.20;;;;;;;;;;5070943;28;20016;-74
2023/06/02 06:30:01;;;;;;;10.65;2.60;;;;;;;;;;5083074;28;20521;-73
2023/06/02 06:32:27;;;;;;;6.97;1.92;;;;;;;;;;5111449;28;20111;-74
2023/06/02 06:34:53;;;;;;;8.23;1.45;;;;;;;;;;5103543;28;20028;-73
2023/06/02 06:37:19;;;;;;;11.15;2.35;;;;;;;;;;5090777;28;20391;-73
2023/06/02 06:39:45;;;;;;;8.00;1.85;;;;;;;;;;5091173;28;20055;-73
2023/06/02 06:42:11;;;;;;;8.45;1.67;;;;;;;;;;5091028;28;20495;-74
2023/06/02 06:44:44;;;;;;;15.35;3.30;;;;;;;;;;5091112;28;20052;-74
2023/06/02 06:47:10;;;;;;;11.15;2.20;;;;;;;;;;5091255;28;20704;-74
2023/06/02 06:49:36;;;;;;;11.40;2.33;;;;;;;;;;5091161;28;20028;-74
2023/06/02 06:52:02;;;;;;;11.68;2.50;;;;;;;;;;5090984;28;20427;-74
2023/06/02 06:54:28;;;;;;;13.98;3.67;;;;;;;;;;5091522;28;20058;-74
2023/06/02 06:56:54;;;;;;;10.98;3.17;;;;;;;;;;5091277;28;20505;-74
2023/06/02 06:59:20;;;;;;;14.60;3.65;;;;;;;;;;5091101;28;20028;-74
2023/06/02 07:01:46;;;;;;;18.05;3.55;;;;;;;;;;5089583;28;20102;-73
2023/06/02 07:04:12;;;;;;;9.10;2.63;;;;;;;;;;5089878;28;20024;-73
2023/06/02 07:06:38;;;;;;;9.77;2.13;;;;;;;;;;5070889;28;20056;-74
2023/06/02 07:09:04;;;;;;;14.13;2.90;;;;;;;;;;5073855;28;20087;-73
2023/06/02 07:11:30;;;;;;;15.70;3.85;;;;;;;;;;5079024;28;20020;-74
2023/06/02 07:13:56;;;;;;;17.35;2.63;;;;;;;;;;5076287;28;20374;-74
2023/06/02 07:16:22;;;;;;;13.52;2.80;;;;;;;;;;5084437;28;20028;-74
2023/06/02 07:18:48;;;;;;;8.13;2.20;;;;;;;;;;5094269;28;20024;-74
2023/06/02 07:21:14;;;;;;;22.75;2.90;;;;;;;;;;5094401;28;20173;-74
2023/06/02 07:23:40;;;;;;;12.73;2.25;;;;;;;;;;5094242;28;20027;-73
2023/06/02 07:26:06;;;;;;;10.75;2.28;;;;;;;;;;5076256;28;20028;-74
2023/06/02 07:28:32;;;;;;;11.43;2.90;;;;;;;;;;5079251;28;20047;-72
2023/06/02 07:30:58;;;;;;;15.07;2.67;;;;;;;;;;5086624;28;20021;-74
2023/06/02 07:33:24;;;;;;;13.60;2.58;;;;;;;;;;5074200;28;20494;-73
2023/06/02 07:35:50;;;;;;;11.80;2.75;;;;;;;;;;5087703;28;20020;-74
2023/06/02 07:38:16;;;;;;;10.35;2.60;;;;;;;;;;5086731;28;20352;-73
2023/06/02 07:40:42;;;;;;;11.02;3.47;;;;;;;;;;5087617;28;20056;-74
2023/06/02 07:43:08;;;;;;;14.48;2.70;;;;;;;;;;5086422;28;20063;-72
2023/06/02 07:45:35;;;;;;;13.38;3.80;;;;;;;;;;5073803;28;20082;-73
2023/06/02 07:48:01;;;;;;;8.65;2.42;;;;;;;;;;5074191;28;20029;-74
2023/06/02 07:50:27;;;;;;;10.35;2.60;;;;;;;;;;5092069;28;20024;-74
2023/06/02 07:52:54;;;;;;;17.05;3.13;;;;;;;;;;5093885;28;20020;-74
2023/06/02 07:55:21;;;;;;;12.25;3.10;;;;;;;;;;5093926;28;20464;-74
2023/06/02 07:57:47;;;;;;;18.13;3.55;;;;;;;;;;5077613;28;20391;-74
2023/06/02 08:00:16;;;;;;;12.05;2.97;;;;;;;;;;5093551;28;20039;-75
2023/06/02 08:02:49;;;;;;;11.75;2.72;;;;;;;;;;5092678;28;20079;-75
2023/06/02 08:05:15;;;;;;;7.03;1.85;;;;;;;;;;5093557;28;20110;-75
2023/06/02 08:07:42;;;;;;;12.23;3.35;;;;;;;;;;5093637;28;20035;-75
2023/06/02 08:10:08;;;;;;;15.05;3.50;;;;;;;;;;5093441;28;20130;-74
2023/06/02 08:12:34;;;;;;;14.18;3.45;;;;;;;;;;5093493;28;20020;-75
2023/06/02 08:15:00;;;;;;;17.27;3.40;;;;;;;;;;5075535;28;20380;-75
2023/06/02 08:17:29;;;;;;;9.85;2.75;;;;;;;;;;5093356;28;20103;-75
2023/06/02 08:20:01;;;;;;;15.10;3.13;;;;;;;;;;5093499;28;20665;-75
2023/06/02 08:22:28;;;;;;;18.60;3.35;;;;;;;;;;5083266;28;20025;-73
2023/06/02 08:24:55;;;;;;;14.00;3.13;;;;;;;;;;5073633;28;20111;-73
2023/06/02 08:27:24;;;;;;;12.68;2.83;;;;;;;;;;5072935;28;20032;-73
2023/06/02 08:29:51;;;;;;;15.98;3.00;;;;;;;;;;5073404;28;20031;-73
2023/06/02 08:32:17;;;;;;;8.48;3.00;;;;;;;;;;5082628;28;20016;-73
2023/06/02 08:34:44;;;;;;;7.75;2.20;;;;;;;;;;5093454;28;20043;-73
2023/06/02 08:37:16;;;;;;;12.43;2.78;;;;;;;;;;5091331;28;20028;-74
2023/06/02 08:39:45;;;;;;;10.75;2.90;;;;;;;;;;5086256;28;20463;-73
2023/06/02 08:42:11;;;;;;;10.98;3.00;;;;;;;;;;5072952;28;20030;-74
2023/06/02 08:44:38;;;;;;;19.70;3.20;;;;;;;;;;5092369;28;20525;-74
2023/06/02 08:47:07;;;;;;;10.52;2.60;;;;;;;;;;5093105;28;20527;-73
2023/06/02 08:49:35;;;;;;;14.77;2.80;;;;;;;;;;5074358;28;20035;-73
2023/06/02 08:52:03;;;;;;;9.27;2.25;;;;;;;;;;5097964;28;20022;-73
2023/06/02 08:54:33;;;;;;;12.70;2.45;;;;;;;;;;5113017;28;20020;-73
2023/06/02 08:57:04;;;;;;;12.68;1.77;;;;;;;;;;5084546;28;20417;-73
2023/06/02 08:59:30;;;;;;;15.07;2.97;;;;;;;;;;5092810;28;20139;-73
2023/06/02 09:01:56;;;;;;;11.95;2.35;;;;;;;;;;5091747;28;20056;-73
2023/06/02 09:04:22;;;;;;;14.13;2.38;;;;;;;;;;5091370;28;20024;-73
2023/06/02 09:06:51;;;;;;;15.00;2.80;;;;;;;;;;5092659;28;20026;-74
2023/06/02 09:09:17;;;;;;;7.28;1.65;;;;;;;;;;5091893;28;20107;-74
2023/06/02 09:11:57;;;;;;;12.10;2.80;;;;;;;;;;5092609;28;20115;-73
2023/06/02 09:14:23;;;;;;;10.20;2.13;;;;;;;;;;5092652;28;20028;-74
2023/06/02 09:16:49;;;;;;;11.88;2.60;;;;;;;;;;5082869;28;20056;-74
2023/06/02 09:19:15;;;;;;;11.50;2.60;;;;;;;;;;5081882;28;20466;-74
2023/06/02 09:21:42;;;;;;;10.82;2.03;;;;;;;;;;5092105;28;20063;-74
2023/06/02 09:24:08;;;;;;;12.57;2.50;;;;;;;;;;5092469;28;20051;-74
2023/06/02 09:26:35;;;;;;;7.97;2.38;;;;;;;;;;5092676;28;20042;-74
2023/06/02 09:29:12;;;;;;;9.88;1.90;;;;;;;;;;5092379;28;20020;-75
2023/06/02 09:31:48;;;;;;;8.85;2.20;;;;;;;;;;5091551;28;20602;-74
2023/06/02 09:34:14;;;;;;;8.65;2.80;;;;;;;;;;5086484;28;20034;-74
2023/06/02 09:36:40;;;;;;;10.35;2.15;;;;;;;;;;5089090;28;20463;-74
2023/06/02 09:39:10;;;;;;;11.73;2.63;;;;;;;;;;5073869;28;20028;-74
2023/06/02 09:41:36;;;;;;;12.77;2.80;;;;;;;;;;5092326;28;20730;-74
2023/06/02 09:44:04;;;;;;;13.25;2.47;;;;;;;;;;5092112;28;20028;-74
2023/06/02 09:46:31;;;;;;;6.15;2.13;;;;;;;;;;5091925;28;20078;-74
2023/06/02 09:49:00;;;;;;;9.80;1.88;;;;;;;;;;5092131;28;20503;-74
2023/06/02 09:51:26;;;;;;;10.35;2.00;;;;;;;;;;5092051;28;20093;-74
2023/06/02 09:53:52;;;;;;;9.70;2.20;;;;;;;;;;5091630;28;20035;-74
2023/06/02 09:56:22;;;;;;;5.45;2.42;;;;;;;;;;5091894;28;20020;-74
2023/06/02 09:58:49;;;;;;;9.95;2.53;;;;;;;;;;5091687;28;20028;-74
2023/06/02 10:01:15;;;;;;;10.48;2.38;;;;;;;;;;5090144;28;20147;-74
2023/06/02 10:03:45;;;;;;;7.20;2.13;;;;;;;;;;5091533;28;20035;-74
2023/06/02 10:06:24;;;;;;;8.95;2.22;;;;;;;;;;5091188;28;20035;-74
2023/06/02 10:08:58;;;;;;;12.25;2.30;;;;;;;;;;5079440;28;20423;-74
2023/06/02 10:11:35;;;;;;;13.85;2.20;;;;;;;;;;5081222;28;20024;-74
2023/06/02 10:14:00;;;;;;;10.48;2.15;;;;;;;;;;5071547;28;20028;-74
2023/06/02 10:16:45;;;;;;;8.82;2.28;;;;;;;;;;5071784;28;20036;-74
2023/06/02 10:19:30;;;;;;;8.88;2.00;;;;;;;;;;5078425;28;20031;-74
2023/06/02 10:22:05;;;;;;;8.13;1.88;;;;;;;;;;5080596;28;20028;-74
2023/06/02 10:24:34;;;;;;;9.77;2.17;;;;;;;;;;5086981;28;20032;-74
2023/06/02 10:27:09;;;;;;;4.47;1.02;;;;;;;;;;5082782;28;20111;-74
2023/06/02 10:29:36;;;;;;;8.63;2.85;;;;;;;;;;5090343;28;20020;-74
2023/06/02 10:32:19;;;;;;;8.98;1.60;;;;;;;;;;5071129;28;20044;-74
2023/06/02 10:34:49;;;;;;;8.30;1.58;;;;;;;;;;5070880;28;20036;-74
2023/06/02 10:37:15;;;;;;;6.20;1.85;;;;;;;;;;5088025;28;20024;-74
2023/06/02 10:39:45;;;;;;;7.15;1.83;;;;;;;;;;5067861;28;20020;-74
2023/06/02 10:42:11;;;;;;;5.53;1.80;;;;;;;;;;5083776;28;20032;-74
2023/06/02 10:44:38;;;;;;;4.15;1.75;;;;;;;;;;5094772;28;20048;-74
2023/06/02 10:47:19;;;;;;;7.18;1.70;;;;;;;;;;5076530;28;20077;-75
2023/06/02 10:49:55;;;;;;;4.32;1.70;;;;;;;;;;5078747;28;20051;-74
2023/06/02 10:52:21;;;;;;;2.55;1.08;;;;;;;;;;5075730;28;20031;-74
2023/06/02 10:55:06;;;;;;;5.07;1.80;;;;;;;;;;5084515;28;20024;-74
2023/06/02 10:57:51;;;;;;;7.75;1.45;;;;;;;;;;5089709;28;20032;-74
2023/06/02 11:00:44;;;;;;;5.55;1.50;;;;;;;;;;5074440;28;20060;-74
2023/06/02 11:03:17;;;;;;;3.20;1.20;;;;;;;;;;5034470;28;20047;-74
2023/06/02 11:05:43;;;;;;;1.83;0.90;;;;;;;;;;5034553;28;20025;-74
2023/06/02 11:08:15;;;;;;;3.90;1.27;;;;;;;;;;5034907;28;20025;-74
2023/06/02 11:10:49;;;;;;;6.10;0.80;;;;;;;;;;5054212;28;20021;-74
2023/06/02 11:13:16;;;;;;;4.35;1.10;;;;;;;;;;5053823;28;20430;-74
2023/06/02 11:15:58;;;;;;;3.92;0.88;;;;;;;;;;5053686;28;20075;-74
2023/06/02 11:18:25;;;;;;;3.85;0.77;;;;;;;;;;5053351;28;20017;-74
2023/06/02 11:20:55;;;;;;;4.15;1.00;;;;;;;;;;5041430;28;20032;-74
2023/06/02 11:23:21;;;;;;;2.80;1.00;;;;;;;;;;5042620;28;20070;-73
2023/06/02 11:25:48;;;;;;;1.45;0.80;;;;;;;;;;5044949;28;20384;-73
2023/06/02 11:28:23;;;;;;;4.55;1.27;;;;;;;;;;5046016;28;20025;-73
2023/06/02 11:31:05;;;;;;;1.08;0.60;;;;;;;;;;5045982;28;20885;-73
2023/06/02 11:33:35;;;;;;;4.65;1.20;;;;;;;;;;5038655;28;20021;-73
2023/06/02 11:36:01;;;;;;;2.72;0.77;;;;;;;;;;5043354;28;20017;-73
2023/06/02 11:38:32;;;;;;;1.48;0.55;;;;;;;;;;5049589;28;20036;-73
2023/06/02 11:41:13;;;;;;;4.20;0.60;;;;;;;;;;5047436;28;20314;-73
2023/06/02 11:43:40;;;;;;;2.05;0.60;;;;;;;;;;5043315;28;20091;-73
2023/06/02 11:46:07;;;;;;;2.90;0.73;;;;;;;;;;5049747;28;20403;-73
2023/06/02 11:48:36;;;;;;;1.95;0.50;;;;;;;;;;5050760;28;20032;-73
2023/06/02 11:51:09;;;;;;;2.78;0.68;;;;;;;;;;5049399;28;20024;-73
2023/06/02 11:53:37;;;;;;;4.70;1.10;;;;;;;;;;5049801;28;20040;-73
2023/06/02 11:56:06;;;;;;;1.88;0.73;;;;;;;;;;5040418;28;20021;-73
2023/06/02 11:58:32;;;;;;;1.80;0.70;;;;;;;;;;5046690;28;20037;-73
2023/06/02 12:01:08;;;;;;;2.47;1.10;;;;;;;;;;5045647;28;20025;-74
2023/06/02 12:03:34;;;;;;;1.20;0.57;;;;;;;;;;5090675;28;20024;-73
2023/06/02 12:06:09;;;;;;;2.38;0.90;;;;;;;;;;5090782;28;20028;-73
2023/06/02 12:08:35;;;;;;;1.38;0.63;;;;;;;;;;5089933;28;20042;-73
2023/06/02 12:11:01;;;;;;;2.78;0.90;;;;;;;;;;5086081;28;20438;-73
2023/06/02 12:13:28;;;;;;;4.15;0.60;;;;;;;;;;5090664;28;20035;-73
2023/06/02 12:15:55;;;;;;;1.95;0.77;;;;;;;;;;5083510;28;20036;-73
2023/06/02 12:18:28;;;;;;;2.03;0.70;;;;;;;;;;5087295;28;20066;-73
2023/06/02 12:20:55;;;;;;;1.15;0.50;;;;;;;;;;5089443;28;20032;-73
2023/06/02 12:23:21;;;;;;;0.57;0.50;;;;;;;;;;5084434;28;20035;-73
2023/06/02 12:25:57;;;;;;;1.27;0.57;;;;;;;;;;5087913;28;20058;-73
2023/06/02 12:28:23;;;;;;;1.83;0.70;;;;;;;;;;5089611;28;20024;-73
2023/06/02 12:30:49;;;;;;;5.38;1.13;;;;;;;;;;5089982;28;20024;-73
2023/06/02 12:33:15;;;;;;;1.42;0.73;;;;;;;;;;5089324;28;20042;-73
2023/06/02 12:35:41;;;;;;;5.15;1.63;;;;;;;;;;5089909;28;20355;-73
2023/06/02 12:38:09;;;;;;;2.33;1.00;;;;;;;;;;5084789;28;20070;-73
2023/06/02 12:40:35;;;;;;;6.32;0.98;;;;;;;;;;5082591;28;20482;-73
2023/06/02 12:43:01;;;;;;;2.13;0.85;;;;;;;;;;5084176;28;20476;-73
2023/06/02 12:45:28;;;;;;;2.15;1.02;;;;;;;;;;5089669;28;20024;-73
2023/06/02 12:47:54;;;;;;;2.75;1.05;;;;;;;;;;5085504;28;20017;-73
2023/06/02 12:50:24;;;;;;;1.45;0.80;;;;;;;;;;5089720;28;20038;-73
2023/06/02 12:52:53;;;;;;;1.50;0.80;;;;;;;;;;5084066;28;20462;-73
2023/06/02 12:55:19;;;;;;;2.72;1.75;;;;;;;;;;5089896;28;20035;-73
2023/06/02 12:57:50;;;;;;;3.03;1.13;;;;;;;;;;5080319;28;20020;-73
2023/06/02 13:00:17;;;;;;;3.60;1.30;;;;;;;;;;5089242;28;20067;-73
2023/06/02 13:02:44;;;;;;;4.28;1.23;;;;;;;;;;5080312;28;20040;-73
2023/06/02 13:05:11;;;;;;;5.53;1.60;;;;;;;;;;5088734;28;20024;-73
2023/06/02 13:07:40;;;;;;;1.05;0.93;;;;;;;;;;5083467;28;20036;-73
2023/06/02 13:10:07;;;;;;;3.93;1.63;;;;;;;;;;5089314;28;20062;-73
2023/06/02 13:12:33;;;;;;;2.78;1.45;;;;;;;;;;5089618;28;20371;-73
2023/06/02 13:15:00;;;;;;;7.13;2.55;;;;;;;;;;5087504;28;20078;-73
2023/06/02 13:17:27;;;;;;;2.60;1.45;;;;;;;;;;5085502;28;20059;-73
2023/06/02 13:19:53;;;;;;;8.40;1.77;;;;;;;;;;5088802;28;20319;-73
2023/06/02 13:22:20;;;;;;;2.85;1.27;;;;;;;;;;5089074;28;20046;-73
2023/06/02 13:24:46;;;;;;;4.30;1.80;;;;;;;;;;5082824;28;20212;-73
2023/06/02 13:27:12;;;;;;;8.05;2.25;;;;;;;;;;5089256;28;20063;-73
2023/06/02 13:29:39;;;;;;;2.88;1.70;;;;;;;;;;5088932;28;20077;-73
2023/06/02 13:32:05;;;;;;;3.45;1.75;;;;;;;;;;5081123;28;20057;-73
2023/06/02 13:34:32;;;;;;;3.00;1.42;;;;;;;;;;5086551;28;20240;-73
2023/06/02 13:36:58;;;;;;;7.95;1.90;;;;;;;;;;5087661;28;20081;-73
2023/06/02 13:39:24;;;;;;;3.30;1.92;;;;;;;;;;5087370;28;20123;-73
2023/06/02 13:41:50;;;;;;;5.30;2.30;;;;;;;;;;5086854;28;20074;-73
2023/06/02 13:44:19;;;;;;;2.38;1.52;;;;;;;;;;5085291;28;20060;-73
2023/06/02 13:46:46;;;;;;;3.22;2.17;;;;;;;;;;5088873;28;20032;-73
2023/06/02 13:49:16;;;;;;;8.57;2.13;;;;;;;;;;5067725;28;20503;-73
2023/06/02 13:51:42;;;;;;;6.68;2.03;;;;;;;;;;5085429;28;20032;-73
2023/06/02 13:54:08;;;;;;;6.00;1.88;;;;;;;;;;5088579;28;20659;-73
2023/06/02 13:56:34;;;;;;;7.38;2.00;;;;;;;;;;5088911;28;20032;-74
2023/06/02 13:59:00;;;;;;;6.07;2.15;;;;;;;;;;5085388;28;20082;-73
2023/06/02 14:01:26;;;;;;;6.22;2.63;;;;;;;;;;5087311;28;20063;-73
2023/06/02 14:03:52;;;;;;;6.00;2.47;;;;;;;;;;5087225;28;20020;-73
2023/06/02 14:06:18;;;;;;;6.32;2.08;;;;;;;;;;5088637;28;20374;-74
2023/06/02 14:08:44;;;;;;;3.45;1.88;;;;;;;;;;5067077;28;20056;-73
2023/06/02 14:11:10;;;;;;;1.92;1.33;;;;;;;;;;5070570;28;20032;-73
2023/06/02 14:13:36;;;;;;;4.10;2.08;;;;;;;;;;5084054;28;20545;-73
2023/06/02 14:16:02;;;;;;;6.22;2.85;;;;;;;;;;5086448;28;20111;-73
2023/06/02 14:18:29;;;;;;;7.50;2.30;;;;;;;;;;5086914;28;20105;-73
2023/06/02 14:20:55;;;;;;;5.15;2.50;;;;;;;;;;5092762;28;20036;-73
2023/06/02 14:23:21;;;;;;;3.45;2.17;;;;;;;;;;5092237;28;20043;-73
2023/06/02 14:25:47;;;;;;;6.72;2.25;;;;;;;;;;5092910;28;20091;-73
2023/06/02 14:28:13;;;;;;;4.47;2.17;;;;;;;;;;5073087;28;20111;-73
2023/06/02 14:30:39;;;;;;;6.10;2.67;;;;;;;;;;5091775;28;20028;-73
2023/06/02 14:33:05;;;;;;;3.03;2.03;;;;;;;;;;5092280;28;20031;-73
2023/06/02 14:35:31;;;;;;;3.38;1.90;;;;;;;;;;5092190;28;20032;-73
2023/06/02 14:37:57;;;;;;;7.88;2.92;;;;;;;;;;5092275;28;20020;-73
2023/06/02 14:40:23;;;;;;;4.28;2.08;;;;;;;;;;5092052;28;20493;-73